createdAt,value
2022-07-27T00:04:38.353Z,0.93
2022-07-27T00:09:35.034Z,0.55
2022-07-27T00:14:31.616Z,0.57
2022-07-27T00:19:28.147Z,0.90
2022-07-27T00:24:24.758Z,0.82
2022-07-27T00:29:22.124Z,0.75
2022-07-27T00:34:18.536Z,1.77
2022-07-27T00:39:15.125Z,0.63
2022-07-27T00:44:12.404Z,0.50
2022-07-27T00:49:09.050Z,0.60
2022-07-27T00:54:06.549Z,0.65
2022-07-27T00:59:03.146Z,0.70
2022-07-27T01:03:59.484Z,0.80
2022-07-27T01:09:18.228Z,0.70
2022-07-27T01:14:16.605Z,1.02
2022-07-27T01:19:15.407Z,0.70
2022-07-27T01:24:11.940Z,0.90
2022-07-27T01:29:08.690Z,0.90
2022-07-27T01:34:05.430Z,0.85
2022-07-27T01:39:01.836Z,1.00
2022-07-27T01:43:58.499Z,1.70
2022-07-27T01:48:54.934Z,0.95
2022-07-27T01:53:51.419Z,1.08
2022-07-27T01:58:47.823Z,1.40
2022-07-27T02:03:44.253Z,0.98
2022-07-27T02:08:40.606Z,1.02
2022-07-27T02:13:37.466Z,1.10
2022-07-27T02:18:36.919Z,1.05
2022-07-27T02:23:35.426Z,1.20
2022-07-27T02:28:32.549Z,1.08
2022-07-27T02:33:29.081Z,0.95
2022-07-27T02:38:25.891Z,0.88
2022-07-27T02:43:23.031Z,0.73
2022-07-27T02:48:19.943Z,0.90
2022-07-27T02:53:16.307Z,0.90
2022-07-27T02:58:12.711Z,0.88
2022-07-27T03:03:09.022Z,0.80
2022-07-27T03:08:05.871Z,1.20
2022-07-27T03:13:03.089Z,0.93
2022-07-27T03:17:59.431Z,0.93
2022-07-27T03:22:55.796Z,1.08
2022-07-27T03:27:52.219Z,1.00
2022-07-27T03:32:48.694Z,0.95
2022-07-27T03:37:45.018Z,0.98
2022-07-27T03:42:41.527Z,1.10
2022-07-27T03:47:37.904Z,1.30
2022-07-27T03:52:34.248Z,1.17
2022-07-27T03:57:30.691Z,1.20
2022-07-27T04:02:27.322Z,0.70
2022-07-27T04:07:23.739Z,1.25
2022-07-27T04:12:20.225Z,0.80
2022-07-27T04:17:53.521Z,0.90
2022-07-27T04:22:34.229Z,0.80
2022-07-27T04:27:30.580Z,1.20
2022-07-27T04:32:26.962Z,2.35
2022-07-27T04:37:23.339Z,1.80
2022-07-27T04:42:19.750Z,2.30
2022-07-27T04:47:16.186Z,2.30
2022-07-27T04:52:15.151Z,2.47
2022-07-27T04:57:11.697Z,2.38
2022-07-27T05:02:08.392Z,2.20
2022-07-27T05:07:04.953Z,2.15
2022-07-27T05:12:01.404Z,2.00
2022-07-27T05:16:57.895Z,1.98
2022-07-27T05:21:54.313Z,2.38
2022-07-27T05:26:50.765Z,1.90
2022-07-27T05:31:47.239Z,2.33
2022-07-27T05:36:43.633Z,2.63
2022-07-27T05:41:40.182Z,2.38
2022-07-27T05:46:36.673Z,2.08
2022-07-27T05:51:33.121Z,2.47
2022-07-27T05:56:29.833Z,1.80
2022-07-27T06:01:26.339Z,1.80
2022-07-27T06:06:41.647Z,1.60
2022-07-27T06:11:38.029Z,1.77
2022-07-27T06:16:35.000Z,1.92
2022-07-27T06:21:31.787Z,1.67
2022-07-27T06:26:28.241Z,1.23
2022-07-27T06:31:27.047Z,1.73
2022-07-27T06:36:25.936Z,1.33
2022-07-27T06:41:22.392Z,1.10
2022-07-27T06:46:18.872Z,1.70
2022-07-27T06:51:15.340Z,1.08
2022-07-27T06:56:11.725Z,1.10
2022-07-27T07:01:08.243Z,0.70
2022-07-27T07:06:04.767Z,0.77
2022-07-27T07:11:01.212Z,1.15
2022-07-27T07:15:57.736Z,1.00
2022-07-27T07:20:54.568Z,0.98
2022-07-27T07:25:51.186Z,0.98
2022-07-27T07:30:50.710Z,0.90
2022-07-27T07:36:12.269Z,1.75
2022-07-27T07:41:03.560Z,1.00
2022-07-27T07:45:59.954Z,1.13
2022-07-27T07:50:56.436Z,0.80
2022-07-27T07:55:56.105Z,1.00
2022-07-27T08:00:52.810Z,1.30
2022-07-27T08:05:49.265Z,1.20
2022-07-27T08:10:45.720Z,0.95
2022-07-27T08:15:44.622Z,0.80
2022-07-27T08:20:41.213Z,0.68
2022-07-27T08:25:39.337Z,0.85
2022-07-27T08:30:36.095Z,0.52
2022-07-27T08:35:34.125Z,0.95
2022-07-27T08:40:40.400Z,0.68
2022-07-27T08:45:41.437Z,0.80
2022-07-27T08:50:38.322Z,0.93
2022-07-27T08:55:40.027Z,0.90
2022-07-27T09:00:39.521Z,1.00
2022-07-27T09:05:45.327Z,1.15
2022-07-27T09:10:42.538Z,1.02
2022-07-27T09:16:18.680Z,0.80
2022-07-27T09:21:16.018Z,0.80
2022-07-27T09:26:33.638Z,1.00
2022-07-27T09:31:31.606Z,1.10
2022-07-27T09:36:29.955Z,0.80
2022-07-27T09:41:27.041Z,1.45
2022-07-27T09:46:32.211Z,0.47
2022-07-27T09:51:59.316Z,0.60
2022-07-27T09:56:45.451Z,0.60
2022-07-27T10:01:47.663Z,0.95
2022-07-27T10:07:01.756Z,0.70
2022-07-27T10:11:59.828Z,0.70
2022-07-27T10:16:57.662Z,0.80
2022-07-27T10:21:54.110Z,0.90
2022-07-27T10:26:50.792Z,0.75
2022-07-27T10:31:53.105Z,0.50
2022-07-27T10:36:53.544Z,0.70
2022-07-27T10:41:50.140Z,1.10
2022-07-27T10:46:56.516Z,0.52
2022-07-27T10:51:54.863Z,0.93
2022-07-27T10:56:52.607Z,0.65
2022-07-27T11:01:57.357Z,0.70
2022-07-27T11:12:18.120Z,0.80
2022-07-27T11:27:50.621Z,0.50
2022-07-27T11:32:47.099Z,0.85
2022-07-27T11:37:58.248Z,0.77
2022-07-27T11:42:54.716Z,1.15
2022-07-27T11:47:57.888Z,0.63
2022-07-27T11:53:01.625Z,0.57
2022-07-27T11:58:04.563Z,1.13
2022-07-27T12:03:00.953Z,0.85
2022-07-27T12:07:57.747Z,1.25
2022-07-27T12:12:54.118Z,0.65
2022-07-27T12:17:59.903Z,0.75
2022-07-27T12:22:56.519Z,0.85
2022-07-27T12:28:08.331Z,1.30
2022-07-27T12:33:08.055Z,0.70
2022-07-27T12:38:09.593Z,0.65
2022-07-27T12:43:06.715Z,0.60
2022-07-27T12:48:16.725Z,0.70
2022-07-27T12:53:15.379Z,1.10
2022-07-27T12:58:14.191Z,0.70
2022-07-27T13:03:10.993Z,0.85
2022-07-27T13:08:08.659Z,0.50
2022-07-27T13:13:06.604Z,0.70
2022-07-27T13:18:03.155Z,0.50
2022-07-27T13:22:59.543Z,0.80
2022-07-27T13:27:56.022Z,0.75
2022-07-27T13:32:52.635Z,0.60
2022-07-27T13:37:49.625Z,0.60
2022-07-27T13:42:46.066Z,0.50
2022-07-27T13:47:42.837Z,0.55
2022-07-27T13:52:39.313Z,0.60
2022-07-27T13:57:35.759Z,0.73
2022-07-27T14:02:32.314Z,0.65
2022-07-27T14:07:28.857Z,1.08
2022-07-27T14:12:25.317Z,0.70
2022-07-27T14:17:21.732Z,0.63
2022-07-27T14:22:18.124Z,0.70
2022-07-27T14:27:15.306Z,0.68
2022-07-27T14:32:11.897Z,0.47
2022-07-27T14:37:09.438Z,0.50
2022-07-27T14:42:06.086Z,1.50
2022-07-27T14:47:02.542Z,0.60
2022-07-27T14:51:58.988Z,0.80
2022-07-27T14:56:55.417Z,0.60
2022-07-27T15:01:52.956Z,0.57
2022-07-27T15:06:49.541Z,0.73
2022-07-27T15:11:45.987Z,0.50
2022-07-27T15:16:42.487Z,0.60
2022-07-27T15:21:39.138Z,0.75
2022-07-27T15:26:35.997Z,0.77
2022-07-27T15:31:32.569Z,0.87
2022-07-27T15:36:31.792Z,0.95
2022-07-27T15:41:29.928Z,0.88
2022-07-27T15:51:26.177Z,0.50
2022-07-27T15:56:23.466Z,0.60
2022-07-27T16:01:21.160Z,0.80
2022-07-27T16:06:19.174Z,0.70
2022-07-27T16:11:16.759Z,1.08
2022-07-27T16:16:21.996Z,0.95
2022-07-27T16:21:19.568Z,0.68
2022-07-27T16:26:16.437Z,1.20
2022-07-27T16:31:15.328Z,0.80
2022-07-27T16:36:12.538Z,0.80
2022-07-27T16:41:11.036Z,0.47
2022-07-27T16:46:08.894Z,0.68
2022-07-27T16:51:05.485Z,0.70
2022-07-27T16:56:02.083Z,0.50
2022-07-27T17:00:58.519Z,1.33
2022-07-27T17:05:55.031Z,1.02
2022-07-27T17:10:51.514Z,1.45
2022-07-27T17:15:48.001Z,0.85
2022-07-27T17:20:44.565Z,1.15
2022-07-27T17:25:41.031Z,1.00
2022-07-27T17:30:38.482Z,1.10
2022-07-27T17:35:35.388Z,0.63
2022-07-27T17:40:31.781Z,0.50
2022-07-27T17:45:28.478Z,0.75
2022-07-27T17:50:24.927Z,0.50
2022-07-27T17:55:21.322Z,0.80
2022-07-27T18:00:18.058Z,0.93
2022-07-27T18:05:14.648Z,0.60
2022-07-27T18:10:11.199Z,0.75
2022-07-27T18:15:27.123Z,0.65
2022-07-27T18:20:23.674Z,0.68
2022-07-27T18:25:22.104Z,0.70
2022-07-27T18:30:18.934Z,0.60
2022-07-27T18:35:15.764Z,0.90
2022-07-27T18:40:13.605Z,1.67
2022-07-27T18:50:07.447Z,0.70
2022-07-27T18:55:04.376Z,0.63
2022-07-27T19:00:00.790Z,0.63
2022-07-27T19:04:57.814Z,0.55
2022-07-27T19:09:54.185Z,0.73
2022-07-27T19:14:53.522Z,1.17
2022-07-27T19:19:49.922Z,0.70
2022-07-27T19:24:50.215Z,0.77
2022-07-27T19:29:50.848Z,0.75
2022-07-27T19:34:47.225Z,1.33
2022-07-27T19:40:02.379Z,1.10
2022-07-27T19:45:01.392Z,0.80
2022-07-27T19:49:57.857Z,0.80
2022-07-27T19:54:54.442Z,0.93
2022-07-27T19:59:56.098Z,0.93
2022-07-27T20:04:53.581Z,0.50
2022-07-27T20:09:50.135Z,1.10
2022-07-27T20:14:46.587Z,1.00
2022-07-27T20:19:43.080Z,0.90
2022-07-27T20:24:39.575Z,0.98
2022-07-27T20:29:36.041Z,1.02
2022-07-27T20:34:32.471Z,1.00
2022-07-27T20:39:28.908Z,1.05
2022-07-27T20:44:27.489Z,1.13
2022-07-27T20:49:24.901Z,0.80
2022-07-27T20:54:28.922Z,0.65
2022-07-27T20:59:27.281Z,1.00
2022-07-27T21:04:24.676Z,1.60
2022-07-27T21:09:22.035Z,0.60
2022-07-27T21:14:18.691Z,0.65
2022-07-27T21:19:15.964Z,0.70
2022-07-27T21:24:15.963Z,0.80
2022-07-27T21:29:14.660Z,0.68
2022-07-27T21:34:11.220Z,1.13
2022-07-27T21:39:07.921Z,0.82
2022-07-27T21:44:05.811Z,0.60
2022-07-27T21:49:02.256Z,0.73
2022-07-27T21:53:58.676Z,0.45
2022-07-27T21:58:55.205Z,0.98
2022-07-27T22:03:52.451Z,0.90
2022-07-27T22:08:49.052Z,0.60
2022-07-27T22:13:45.434Z,0.60
2022-07-27T22:18:41.802Z,1.55
2022-07-27T22:23:38.505Z,0.70
2022-07-27T22:28:35.309Z,0.50
2022-07-27T22:33:32.666Z,0.70
2022-07-27T22:38:29.060Z,0.70
2022-07-27T22:43:25.582Z,0.75
2022-07-27T22:48:21.956Z,0.60
2022-07-27T22:53:18.383Z,0.93
2022-07-27T22:58:16.202Z,0.90
2022-07-27T23:03:12.637Z,0.93
2022-07-27T23:08:09.090Z,0.80
2022-07-27T23:13:05.479Z,0.77
2022-07-27T23:18:01.977Z,1.98
2022-07-27T23:22:58.476Z,0.95
2022-07-27T23:27:56.033Z,1.10
2022-07-27T23:32:54.471Z,1.10
2022-07-27T23:37:50.904Z,1.08
2022-07-27T23:42:47.948Z,1.00
2022-07-27T23:47:44.478Z,0.60
2022-07-27T23:52:40.973Z,1.73
2022-07-27T23:57:37.447Z,0.98
